Time;durP1;ratioP1;P1;durP2;ratioP2;P2;SDS_P1;SDS_P2;PMS_P1;PMS_P2;Temp;Humidity;BMP_temperature;BMP_pressure;BME280_temperature;BME280_humidity;BME280_pressure;Samples;Min_cycle;Max_cycle;Signal;HPM_P1;HPM_P2
2022/07/02 00:00:14;;;;;;;;;;;14.00;99.90;;;;;;4991906;28;19988;-66
2022/07/02 00:02:41;;;;;;;;;;;14.00;99.90;;;;;;5006802;28;19914;-66
2022/07/02 00:05:07;;;;;;;;;;;14.00;99.90;;;;;;5007397;28;20024;-68
2022/07/02 00:07:33;;;;;;;;;;;14.00;99.90;;;;;;5010383;28;20398;-68
2022/07/02 00:09:58;;;;;;;;;;;13.90;99.90;;;;;;4990316;28;19920;-69
2022/07/02 00:12:28;;;;;;;;;;;13.90;99.90;;;;;;5006059;28;19913;-67
2022/07/02 00:14:55;;;;;;;;;;;13.80;99.90;;;;;;5009083;28;20615;-67
2022/07/02 00:17:21;;;;;;;;;;;13.80;99.90;;;;;;5010836;28;19913;-67
2022/07/02 00:19:46;;;;;;;;;;;13.80;99.90;;;;;;5012587;28;20012;-66
2022/07/02 00:22:13;;;;;;;;;;;13.80;99.90;;;;;;5009200;28;22006;-67
2022/07/02 00:24:42;;;;;;;;;;;13.80;99.90;;;;;;5010588;28;19920;-67
2022/07/02 00:27:09;;;;;;;;;;;13.80;99.90;;;;;;5009343;28;19972;-66
2022/07/02 00:29:50;;;;;;;;;;;13.70;99.90;;;;;;5011665;28;19921;-70
2022/07/02 00:32:15;;;;;;;;;;;13.70;99.90;;;;;;5011348;28;19921;-66
2022/07/02 00:34:42;;;;;;;;;;;13.60;99.90;;;;;;5011072;28;19936;-66
2022/07/02 00:37:09;;;;;;;;;;;13.60;99.90;;;;;;5009184;28;19919;-66
2022/07/02 00:39:35;;;;;;;;;;;13.60;99.90;;;;;;4995406;28;19961;-68
2022/07/02 00:42:02;;;;;;;;;;;13.60;99.90;;;;;;5013131;28;19968;-67
2022/07/02 00:44:29;;;;;;;;;;;13.60;99.90;;;;;;5012995;28;19972;-67
2022/07/02 00:46:55;;;;;;;;;;;13.50;99.90;;;;;;5009294;28;19960;-67
2022/07/02 00:49:21;;;;;;;;;;;13.50;99.90;;;;;;5009393;28;20008;-67
2022/07/02 00:51:46;;;;;;;;;;;13.50;99.90;;;;;;5010517;28;20044;-67
2022/07/02 00:54:12;;;;;;;;;;;13.50;99.90;;;;;;5011425;28;19910;-66
2022/07/02 00:56:37;;;;;;;;;;;13.60;99.90;;;;;;5010974;28;19913;-65
2022/07/02 00:59:04;;;;;;;;;;;13.60;99.90;;;;;;5010451;28;20499;-66
2022/07/02 01:01:29;;;;;;;;;;;13.50;99.90;;;;;;5006163;28;19921;-67
2022/07/02 01:03:55;;;;;;;;;;;13.60;99.90;;;;;;5008240;28;21264;-67
2022/07/02 01:06:23;;;;;;;;;;;13.60;99.90;;;;;;5009808;28;20259;-65
2022/07/02 01:11:34;;;;;;;;;;;13.60;99.90;;;;;;5008298;28;19940;-67
2022/07/02 01:14:02;;;;;;;;;;;13.60;99.90;;;;;;5008075;28;19921;-67
2022/07/02 01:16:27;;;;;;;;;;;13.50;99.90;;;;;;5006222;28;19972;-67
2022/07/02 01:18:53;;;;;;;;;;;13.50;99.90;;;;;;4989555;28;19929;-67
2022/07/02 01:21:19;;;;;;;;;;;13.50;99.90;;;;;;4987528;28;20404;-66
2022/07/02 01:23:44;;;;;;;;;;;13.50;99.90;;;;;;4987078;28;19913;-65
2022/07/02 01:26:10;;;;;;;;;;;13.40;99.90;;;;;;4985497;28;20044;-67
2022/07/02 01:28:35;;;;;;;;;;;13.50;99.90;;;;;;4987795;28;19913;-66
2022/07/02 01:31:01;;;;;;;;;;;13.50;99.90;;;;;;4972763;28;19914;-67
2022/07/02 01:33:26;;;;;;;;;;;13.50;99.90;;;;;;4983717;28;20382;-68
2022/07/02 01:35:52;;;;;;;;;;;13.50;99.90;;;;;;4984734;28;19922;-67
2022/07/02 01:38:18;;;;;;;;;;;13.40;99.90;;;;;;4986830;28;19920;-66
2022/07/02 01:40:43;;;;;;;;;;;13.40;99.90;;;;;;4990167;28;19937;-67
2022/07/02 01:43:09;;;;;;;;;;;13.40;99.90;;;;;;4989012;28;20280;-66
2022/07/02 01:45:34;;;;;;;;;;;13.40;99.90;;;;;;4983322;28;20924;-66
2022/07/02 01:48:00;;;;;;;;;;;13.40;99.90;;;;;;4985500;28;19953;-66
2022/07/02 01:50:25;;;;;;;;;;;13.30;99.90;;;;;;4986009;28;19924;-67
2022/07/02 01:52:51;;;;;;;;;;;13.20;99.90;;;;;;4985619;28;19968;-67
2022/07/02 01:55:17;;;;;;;;;;;13.20;99.90;;;;;;4990406;28;19961;-67
2022/07/02 01:57:43;;;;;;;;;;;13.10;99.90;;;;;;4986470;28;19961;-67
2022/07/02 02:00:10;;;;;;;;;;;13.10;99.90;;;;;;4970031;28;19921;-66
2022/07/02 02:02:35;;;;;;;;;;;13.10;99.90;;;;;;4988775;28;20291;-66
2022/07/02 02:05:01;;;;;;;;;;;13.10;99.90;;;;;;4987011;28;19913;-66
2022/07/02 02:07:28;;;;;;;;;;;13.00;99.90;;;;;;4984571;28;19922;-67
2022/07/02 02:09:53;;;;;;;;;;;13.00;99.90;;;;;;4984832;28;20411;-66
2022/07/02 02:12:19;;;;;;;;;;;13.00;99.90;;;;;;4986062;28;20044;-66
2022/07/02 02:14:45;;;;;;;;;;;13.10;99.90;;;;;;4983718;28;19921;-66
2022/07/02 02:17:10;;;;;;;;;;;13.20;99.90;;;;;;4989319;28;20371;-67
2022/07/02 02:19:36;;;;;;;;;;;13.20;99.90;;;;;;4990818;28;19914;-66
2022/07/02 02:22:02;;;;;;;;;;;13.20;99.90;;;;;;5007427;28;19920;-68
2022/07/02 02:24:27;;;;;;;;;;;13.30;99.90;;;;;;5006391;28;19920;-67
2022/07/02 02:26:53;;;;;;;;;;;13.20;99.90;;;;;;5007483;28;20402;-67
2022/07/02 02:29:18;;;;;;;;;;;13.20;99.90;;;;;;5007164;28;19914;-66
2022/07/02 02:31:44;;;;;;;;;;;13.20;99.90;;;;;;5008490;28;19918;-66
2022/07/02 02:34:09;;;;;;;;;;;13.30;99.90;;;;;;5006805;28;19922;-67
2022/07/02 02:36:35;;;;;;;;;;;13.30;99.90;;;;;;5011664;28;19913;-67
2022/07/02 02:39:01;;;;;;;;;;;13.30;99.90;;;;;;5002229;28;19917;-67
2022/07/02 02:41:26;;;;;;;;;;;13.20;99.90;;;;;;5007836;28;19913;-67
2022/07/02 02:43:52;;;;;;;;;;;13.10;99.90;;;;;;5007362;28;19961;-67
2022/07/02 02:46:17;;;;;;;;;;;13.00;99.90;;;;;;5008315;28;19921;-67
2022/07/02 02:48:43;;;;;;;;;;;12.90;99.90;;;;;;5010486;28;19918;-67
2022/07/02 02:51:10;;;;;;;;;;;13.00;99.90;;;;;;5005608;28;19968;-67
2022/07/02 02:53:36;;;;;;;;;;;13.10;99.90;;;;;;5006083;28;19984;-65
2022/07/02 02:56:02;;;;;;;;;;;13.20;99.90;;;;;;5007555;28;20359;-67
2022/07/02 02:58:27;;;;;;;;;;;13.20;99.90;;;;;;5006153;28;20359;-66
2022/07/02 03:00:53;;;;;;;;;;;13.10;99.90;;;;;;5004360;28;19920;-66
2022/07/02 03:03:19;;;;;;;;;;;13.30;99.90;;;;;;5008596;28;19914;-66
2022/07/02 03:05:45;;;;;;;;;;;13.40;99.90;;;;;;5006745;28;19982;-67
2022/07/02 03:08:10;;;;;;;;;;;13.60;99.90;;;;;;5008987;28;20363;-69
2022/07/02 03:10:36;;;;;;;;;;;13.60;99.90;;;;;;5005438;28;19913;-67
2022/07/02 03:13:02;;;;;;;;;;;13.70;99.90;;;;;;5002983;28;19914;-68
2022/07/02 03:15:27;;;;;;;;;;;13.80;99.90;;;;;;5006783;28;19914;-66
2022/07/02 03:17:53;;;;;;;;;;;13.90;99.90;;;;;;5006064;28;20299;-66
2022/07/02 03:20:18;;;;;;;;;;;13.90;99.90;;;;;;5006459;28;20000;-67
2022/07/02 03:22:45;;;;;;;;;;;14.00;99.90;;;;;;5003730;28;19983;-65
2022/07/02 03:25:11;;;;;;;;;;;14.10;99.90;;;;;;5010800;28;19933;-66
2022/07/02 03:27:37;;;;;;;;;;;14.20;99.90;;;;;;5009047;28;19971;-67
2022/07/02 03:30:03;;;;;;;;;;;14.30;99.90;;;;;;5009228;28;20284;-66
2022/07/02 03:32:29;;;;;;;;;;;14.30;99.90;;;;;;5010420;28;19914;-67
2022/07/02 03:34:57;;;;;;;;;;;14.30;99.90;;;;;;5010003;28;19914;-67
2022/07/02 03:37:26;;;;;;;;;;;14.40;99.90;;;;;;5012301;28;19952;-68
2022/07/02 03:39:52;;;;;;;;;;;14.50;99.90;;;;;;5013340;28;20744;-67
2022/07/02 03:42:17;;;;;;;;;;;14.50;99.90;;;;;;5007191;28;20003;-67
2022/07/02 03:44:43;;;;;;;;;;;14.50;99.90;;;;;;5007525;28;20278;-67
2022/07/02 03:47:08;;;;;;;;;;;14.50;99.90;;;;;;5005896;28;20020;-68
2022/07/02 03:49:34;;;;;;;;;;;14.50;99.90;;;;;;5009344;28;20019;-67
2022/07/02 03:51:59;;;;;;;;;;;14.60;99.90;;;;;;5009834;28;19921;-66
2022/07/02 03:54:25;;;;;;;;;;;14.60;99.90;;;;;;5008441;28;19914;-68
2022/07/02 03:56:51;;;;;;;;;;;14.70;99.90;;;;;;5011132;28;19914;-66
2022/07/02 03:59:16;;;;;;;;;;;14.80;99.90;;;;;;5009694;28;19917;-67
2022/07/02 04:01:42;;;;;;;;;;;14.80;99.90;;;;;;5009835;28;19913;-66
2022/07/02 04:04:07;;;;;;;;;;;14.90;99.90;;;;;;5009188;28;20027;-66
2022/07/02 04:06:33;;;;;;;;;;;14.90;99.90;;;;;;5004751;28;20314;-67
2022/07/02 04:08:58;;;;;;;;;;;15.00;99.90;;;;;;5007346;28;20271;-68
2022/07/02 04:11:25;;;;;;;;;;;14.90;99.90;;;;;;5013297;28;19914;-67
2022/07/02 04:13:50;;;;;;;;;;;15.00;99.90;;;;;;4994958;28;19925;-67
2022/07/02 04:16:16;;;;;;;;;;;15.00;99.90;;;;;;5012937;28;20045;-66
2022/07/02 04:18:41;;;;;;;;;;;15.00;99.90;;;;;;5004933;28;20405;-67
2022/07/02 04:21:07;;;;;;;;;;;15.00;99.90;;;;;;5010736;28;19914;-69
2022/07/02 04:23:33;;;;;;;;;;;15.00;99.90;;;;;;5007932;28;19921;-66
2022/07/02 04:25:58;;;;;;;;;;;15.10;99.90;;;;;;5011720;28;19914;-67
2022/07/02 04:28:24;;;;;;;;;;;15.10;99.90;;;;;;5012653;28;19920;-66
2022/07/02 04:30:50;;;;;;;;;;;15.10;99.90;;;;;;5013207;28;19921;-67
2022/07/02 04:33:16;;;;;;;;;;;15.20;99.90;;;;;;5009549;28;19917;-66
2022/07/02 04:35:41;;;;;;;;;;;15.20;99.90;;;;;;5009928;28;19936;-66
2022/07/02 04:38:07;;;;;;;;;;;15.30;99.90;;;;;;5009442;28;19922;-66
2022/07/02 04:40:32;;;;;;;;;;;15.20;99.90;;;;;;5011632;28;20375;-67
2022/07/02 04:42:58;;;;;;;;;;;15.20;99.90;;;;;;5006535;28;19914;-66
2022/07/02 04:45:24;;;;;;;;;;;15.30;99.90;;;;;;5003006;28;20414;-66
2022/07/02 04:47:49;;;;;;;;;;;15.30;99.90;;;;;;5010842;28;20012;-65
2022/07/02 04:50:15;;;;;;;;;;;15.30;99.90;;;;;;5007819;28;20300;-67
2022/07/02 04:52:40;;;;;;;;;;;15.30;99.90;;;;;;5007735;28;20010;-67
2022/07/02 04:55:06;;;;;;;;;;;15.30;99.90;;;;;;5005013;28;19940;-67
2022/07/02 04:57:32;;;;;;;;;;;15.40;99.90;;;;;;5005795;28;19961;-67
2022/07/02 04:59:57;;;;;;;;;;;15.40;99.90;;;;;;5010435;28;19914;-67
2022/07/02 05:02:23;;;;;;;;;;;15.40;99.90;;;;;;5004919;28;19976;-67
2022/07/02 05:04:49;;;;;;;;;;;15.40;99.90;;;;;;5001498;28;19913;-67
2022/07/02 05:07:14;;;;;;;;;;;15.30;99.90;;;;;;5008988;28;20291;-68
2022/07/02 05:09:40;;;;;;;;;;;15.30;99.90;;;;;;4997183;28;20278;-67
2022/07/02 05:12:06;;;;;;;;;;;15.30;99.90;;;;;;5006370;28;20363;-67
2022/07/02 05:14:31;;;;;;;;;;;15.30;99.90;;;;;;5011009;28;19975;-68
2022/07/02 05:16:57;;;;;;;;;;;15.40;99.90;;;;;;5009123;28;19959;-66
2022/07/02 05:19:22;;;;;;;;;;;15.50;99.90;;;;;;5011597;28;19928;-70
2022/07/02 05:21:48;;;;;;;;;;;15.60;99.90;;;;;;5010084;28;20329;-67
2022/07/02 05:24:13;;;;;;;;;;;15.70;99.90;;;;;;5008563;28;19920;-66
2022/07/02 05:26:40;;;;;;;;;;;15.70;99.90;;;;;;5005973;28;19928;-67
2022/07/02 05:29:05;;;;;;;;;;;15.60;99.90;;;;;;5007147;28;19922;-67
2022/07/02 05:31:31;;;;;;;;;;;15.70;99.90;;;;;;4997544;28;19952;-67
2022/07/02 05:33:56;;;;;;;;;;;15.80;99.90;;;;;;5005580;28;20008;-67
2022/07/02 05:36:22;;;;;;;;;;;15.80;99.90;;;;;;5000094;28;19921;-67
2022/07/02 05:38:47;;;;;;;;;;;15.70;99.90;;;;;;5000371;28;19913;-67
2022/07/02 05:41:13;;;;;;;;;;;15.80;99.90;;;;;;4992706;28;19917;-66
2022/07/02 05:43:39;;;;;;;;;;;15.90;99.90;;;;;;5004487;28;20003;-67
2022/07/02 05:46:05;;;;;;;;;;;16.00;99.90;;;;;;5002966;28;19926;-66
2022/07/02 05:48:30;;;;;;;;;;;16.10;99.90;;;;;;5005141;28;20361;-66
2022/07/02 05:50:56;;;;;;;;;;;16.20;99.90;;;;;;5004368;28;20410;-68
2022/07/02 05:53:22;;;;;;;;;;;16.40;99.90;;;;;;5004320;28;20410;-67
2022/07/02 05:55:47;;;;;;;;;;;16.50;99.90;;;;;;5005919;28;19936;-68
2022/07/02 05:58:13;;;;;;;;;;;16.30;99.90;;;;;;5005766;28;19913;-68
2022/07/02 06:00:39;;;;;;;;;;;16.20;99.90;;;;;;4990316;28;19917;-66
2022/07/02 06:03:04;;;;;;;;;;;16.20;99.90;;;;;;5010415;28;20391;-67
2022/07/02 06:08:14;;;;;;;;;;;16.40;99.90;;;;;;5009633;28;19928;-66
2022/07/02 06:10:40;;;;;;;;;;;16.40;99.90;;;;;;5007663;28;19913;-66
2022/07/02 06:13:06;;;;;;;;;;;16.40;99.90;;;;;;5001272;28;19917;-66
2022/07/02 06:15:31;;;;;;;;;;;16.50;99.90;;;;;;5007409;28;20367;-66
2022/07/02 06:18:00;;;;;;;;;;;16.70;99.90;;;;;;5009367;28;19922;-67
2022/07/02 06:20:26;;;;;;;;;;;16.80;99.90;;;;;;5009527;28;19929;-67
2022/07/02 06:22:52;;;;;;;;;;;16.80;99.90;;;;;;5009278;28;19913;-68
2022/07/02 06:25:17;;;;;;;;;;;16.80;99.90;;;;;;5004871;28;20027;-66
2022/07/02 06:27:43;;;;;;;;;;;16.80;99.90;;;;;;5009420;28;19929;-66
2022/07/02 06:30:09;;;;;;;;;;;16.90;99.90;;;;;;5004890;28;19918;-66
2022/07/02 06:32:35;;;;;;;;;;;17.00;99.90;;;;;;5005069;28;20476;-66
2022/07/02 06:35:02;;;;;;;;;;;16.90;99.90;;;;;;5006127;28;19920;-66
2022/07/02 06:37:28;;;;;;;;;;;16.80;99.90;;;;;;5002555;28;20403;-66
2022/07/02 06:39:53;;;;;;;;;;;16.70;99.90;;;;;;5008747;28;20005;-67
2022/07/02 06:42:19;;;;;;;;;;;16.70;99.90;;;;;;5008132;28;20000;-67
2022/07/02 06:44:48;;;;;;;;;;;16.70;99.90;;;;;;5003981;28;20219;-67
2022/07/02 06:47:14;;;;;;;;;;;16.60;99.90;;;;;;5002792;28;19979;-67
2022/07/02 06:49:40;;;;;;;;;;;16.60;99.90;;;;;;5009969;28;19918;-65
2022/07/02 06:52:06;;;;;;;;;;;16.60;99.90;;;;;;5005720;28;19914;-66
2022/07/02 06:54:32;;;;;;;;;;;16.70;99.90;;;;;;5006103;28;19968;-66
2022/07/02 06:56:57;;;;;;;;;;;16.70;99.90;;;;;;5003619;28;19980;-66
2022/07/02 06:59:23;;;;;;;;;;;16.80;99.90;;;;;;5010468;28;20012;-67
2022/07/02 07:01:48;;;;;;;;;;;16.90;99.90;;;;;;5011720;28;19959;-66
2022/07/02 07:04:14;;;;;;;;;;;16.90;99.90;;;;;;5011213;28;20375;-67
2022/07/02 07:06:52;;;;;;;;;;;17.00;99.90;;;;;;5013007;28;19921;-66
2022/07/02 07:09:18;;;;;;;;;;;17.10;99.90;;;;;;5007917;28;19921;-66
2022/07/02 07:11:44;;;;;;;;;;;17.30;99.90;;;;;;5009733;28;19917;-66
2022/07/02 07:14:09;;;;;;;;;;;17.30;99.90;;;;;;5009701;28;19928;-67
2022/07/02 07:16:35;;;;;;;;;;;17.30;99.90;;;;;;5012285;28;19914;-65
2022/07/02 07:21:26;;;;;;;;;;;17.40;99.90;;;;;;5013525;28;20391;-67
2022/07/02 07:23:52;;;;;;;;;;;17.20;99.90;;;;;;5009397;28;19921;-66
2022/07/02 07:26:17;;;;;;;;;;;17.30;99.90;;;;;;5010736;28;20287;-67
2022/07/02 07:28:43;;;;;;;;;;;17.30;99.90;;;;;;5009749;28;19982;-67
2022/07/02 07:31:08;;;;;;;;;;;17.30;99.90;;;;;;5007394;28;19914;-66
2022/07/02 07:33:34;;;;;;;;;;;17.20;99.90;;;;;;5008462;28;19945;-66
2022/07/02 07:36:00;;;;;;;;;;;17.20;99.90;;;;;;5009440;28;19980;-67
2022/07/02 07:38:25;;;;;;;;;;;17.40;99.90;;;;;;5004635;28;19920;-68
2022/07/02 07:40:51;;;;;;;;;;;17.60;99.90;;;;;;5009750;28;20356;-67
2022/07/02 07:43:16;;;;;;;;;;;17.70;99.90;;;;;;5009164;28;20012;-67
2022/07/02 07:45:42;;;;;;;;;;;17.60;99.90;;;;;;5013901;28;19926;-67
2022/07/02 07:48:08;;;;;;;;;;;17.60;99.90;;;;;;5011684;28;20413;-68
2022/07/02 07:50:33;;;;;;;;;;;17.50;99.90;;;;;;5009130;28;19921;-66
2022/07/02 07:52:59;;;;;;;;;;;17.60;99.90;;;;;;5010164;28;19913;-67
2022/07/02 07:55:24;;;;;;;;;;;17.70;99.90;;;;;;5006358;28;20008;-65
2022/07/02 07:57:50;;;;;;;;;;;17.40;99.90;;;;;;5011533;28;19913;-67
2022/07/02 08:00:16;;;;;;;;;;;17.50;99.90;;;;;;5009656;28;19913;-66
2022/07/02 08:02:41;;;;;;;;;;;17.40;99.90;;;;;;5010528;28;19921;-66
2022/07/02 08:05:07;;;;;;;;;;;17.50;99.90;;;;;;5006585;28;19913;-66
2022/07/02 08:07:36;;;;;;;;;;;17.70;99.90;;;;;;5009387;28;19921;-66
2022/07/02 08:10:02;;;;;;;;;;;17.90;99.90;;;;;;5005991;28;19925;-66
2022/07/02 08:12:28;;;;;;;;;;;18.10;99.90;;;;;;5010254;28;19937;-67
2022/07/02 08:14:54;;;;;;;;;;;18.10;99.90;;;;;;4994291;28;19914;-67
2022/07/02 08:17:19;;;;;;;;;;;18.30;99.90;;;;;;5006507;28;20265;-68
2022/07/02 08:19:47;;;;;;;;;;;18.30;99.90;;;;;;5010909;28;19932;-66
2022/07/02 08:22:13;;;;;;;;;;;18.30;99.90;;;;;;5011453;28;20320;-66
2022/07/02 08:24:38;;;;;;;;;;;18.20;99.90;;;;;;5010515;28;20027;-66
2022/07/02 08:27:04;;;;;;;;;;;18.30;99.90;;;;;;5006510;28;19929;-66
2022/07/02 08:29:30;;;;;;;;;;;18.40;99.90;;;;;;5012243;28;19913;-66
2022/07/02 08:31:56;;;;;;;;;;;18.40;99.90;;;;;;5006777;28;19921;-66
2022/07/02 08:34:21;;;;;;;;;;;18.10;99.90;;;;;;5010248;28;19913;-67
2022/07/02 08:36:47;;;;;;;;;;;18.10;99.90;;;;;;5005851;28;20436;-66
2022/07/02 08:39:12;;;;;;;;;;;18.00;99.90;;;;;;5005234;28;19967;-65
2022/07/02 08:41:40;;;;;;;;;;;18.10;99.90;;;;;;5010163;28;19953;-68
2022/07/02 08:44:07;;;;;;;;;;;18.10;99.90;;;;;;5007697;28;19913;-66
2022/07/02 08:46:36;;;;;;;;;;;18.00;99.90;;;;;;5007209;28;20162;-67
2022/07/02 08:49:01;;;;;;;;;;;18.00;99.90;;;;;;5011272;28;20290;-66
2022/07/02 08:51:27;;;;;;;;;;;18.10;99.90;;;;;;5009783;28;19929;-66
2022/07/02 08:53:53;;;;;;;;;;;18.00;99.90;;;;;;5010538;28;19920;-67
2022/07/02 08:56:18;;;;;;;;;;;18.00;99.90;;;;;;4996557;28;19920;-67
2022/07/02 08:58:50;;;;;;;;;;;18.00;99.90;;;;;;5004492;28;19913;-67
2022/07/02 09:01:15;;;;;;;;;;;18.10;99.90;;;;;;4992794;28;20365;-66
2022/07/02 09:03:42;;;;;;;;;;;18.10;99.90;;;;;;4985436;28;19914;-66
2022/07/02 09:06:08;;;;;;;;;;;18.00;99.90;;;;;;5009032;28;19913;-65
2022/07/02 09:08:34;;;;;;;;;;;18.00;99.90;;;;;;5006408;28;19920;-66
2022/07/02 09:11:00;;;;;;;;;;;18.20;99.90;;;;;;5006453;28;19915;-66
2022/07/02 09:13:26;;;;;;;;;;;18.20;99.90;;;;;;5010015;28;19924;-66
2022/07/02 09:15:52;;;;;;;;;;;18.40;99.90;;;;;;5010550;28;19920;-66
2022/07/02 09:18:18;;;;;;;;;;;18.80;99.90;;;;;;5009382;28;20016;-66
2022/07/02 09:20:44;;;;;;;;;;;18.80;99.90;;;;;;5007537;28;20454;-66
2022/07/02 09:23:10;;;;;;;;;;;18.70;99.90;;;;;;5010177;28;20021;-66
2022/07/02 09:25:37;;;;;;;;;;;18.60;99.90;;;;;;5007877;28;20375;-67
2022/07/02 09:28:04;;;;;;;;;;;18.70;99.90;;;;;;4990403;28;19980;-66
2022/07/02 09:30:30;;;;;;;;;;;18.70;99.90;;;;;;5006144;28;19920;-66
2022/07/02 09:35:40;;;;;;;;;;;18.90;99.90;;;;;;5003305;28;19921;-68
2022/07/02 09:38:10;;;;;;;;;;;18.70;99.90;;;;;;4990510;28;19994;-67
2022/07/02 09:40:35;;;;;;;;;;;18.50;99.90;;;;;;4989538;28;19921;-67
2022/07/02 09:43:01;;;;;;;;;;;18.50;99.90;;;;;;5008100;28;20298;-67
2022/07/02 09:45:26;;;;;;;;;;;18.80;99.90;;;;;;5004404;28;19965;-67
2022/07/02 09:47:53;;;;;;;;;;;18.80;99.90;;;;;;5008746;28;19921;-67
2022/07/02 09:50:20;;;;;;;;;;;19.00;99.90;;;;;;5009355;28;19921;-67
2022/07/02 09:52:53;;;;;;;;;;;19.10;99.90;;;;;;5006977;28;20360;-66
2022/07/02 09:55:29;;;;;;;;;;;19.20;99.90;;;;;;4985473;28;19968;-66
2022/07/02 09:57:56;;;;;;;;;;;19.40;99.90;;;;;;5007762;28;19996;-66
2022/07/02 10:00:23;;;;;;;;;;;19.20;99.90;;;;;;5008715;28;19913;-66
2022/07/02 10:02:50;;;;;;;;;;;18.80;99.90;;;;;;4988753;28;19913;-67
2022/07/02 10:05:21;;;;;;;;;;;18.30;99.90;;;;;;5003662;28;19980;-67
2022/07/02 10:07:47;;;;;;;;;;;18.00;99.90;;;;;;5002640;28;20356;-67
2022/07/02 10:10:12;;;;;;;;;;;17.70;99.90;;;;;;5001943;28;19914;-67
2022/07/02 10:12:40;;;;;;;;;;;17.50;99.90;;;;;;4987494;28;19913;-67
2022/07/02 10:15:06;;;;;;;;;;;17.30;99.90;;;;;;5005666;28;19918;-67
2022/07/02 10:17:33;;;;;;;;;;;17.10;99.90;;;;;;5006821;28;19914;-67
2022/07/02 10:19:59;;;;;;;;;;;17.00;99.90;;;;;;5008265;28;20295;-67
2022/07/02 10:22:25;;;;;;;;;;;16.90;99.90;;;;;;5003659;28;19913;-67
2022/07/02 10:24:51;;;;;;;;;;;16.90;99.90;;;;;;5006991;28;20317;-67
2022/07/02 10:27:17;;;;;;;;;;;16.80;99.90;;;;;;4988275;28;19932;-66
2022/07/02 10:29:43;;;;;;;;;;;16.90;99.90;;;;;;5002269;28;19948;-67
2022/07/02 10:32:17;;;;;;;;;;;16.80;99.90;;;;;;5003392;28;19917;-67
2022/07/02 10:34:55;;;;;;;;;;;16.70;99.90;;;;;;5014116;28;19957;-67
2022/07/02 10:37:21;;;;;;;;;;;16.70;99.90;;;;;;5011642;28;19918;-68
2022/07/02 10:39:47;;;;;;;;;;;16.60;99.90;;;;;;5015577;28;20387;-66
2022/07/02 10:42:12;;;;;;;;;;;16.60;99.90;;;;;;5014988;28;19914;-66
2022/07/02 10:44:39;;;;;;;;;;;16.50;99.90;;;;;;5015670;28;19965;-68
2022/07/02 10:47:05;;;;;;;;;;;16.50;99.90;;;;;;5016567;28;20383;-67
2022/07/02 10:49:31;;;;;;;;;;;16.60;99.90;;;;;;5012038;28;19933;-67
2022/07/02 10:51:57;;;;;;;;;;;16.60;99.90;;;;;;5008235;28;19941;-67
2022/07/02 10:54:30;;;;;;;;;;;16.70;99.90;;;;;;5016291;28;19968;-68
2022/07/02 10:56:56;;;;;;;;;;;16.80;99.90;;;;;;5014656;28;20367;-67
2022/07/02 10:59:25;;;;;;;;;;;16.90;99.90;;;;;;5012077;28;19921;-67
2022/07/02 11:02:01;;;;;;;;;;;17.00;99.90;;;;;;5000149;28;20007;-66
2022/07/02 11:04:27;;;;;;;;;;;17.10;99.90;;;;;;5014375;28;19918;-66
2022/07/02 11:07:02;;;;;;;;;;;17.20;99.90;;;;;;5014813;28;20279;-66
2022/07/02 11:09:31;;;;;;;;;;;17.30;99.90;;;;;;5012235;28;19914;-67
2022/07/02 11:11:59;;;;;;;;;;;17.20;99.90;;;;;;4993870;28;19920;-68
2022/07/02 11:14:26;;;;;;;;;;;17.30;99.90;;;;;;5013101;28;19920;-66
2022/07/02 11:16:53;;;;;;;;;;;17.30;99.90;;;;;;4995547;28;19975;-69
2022/07/02 11:19:25;;;;;;;;;;;17.20;99.90;;;;;;5011772;28;19971;-67
2022/07/02 11:21:53;;;;;;;;;;;17.30;99.90;;;;;;5014185;28;19922;-67
2022/07/02 11:24:20;;;;;;;;;;;17.10;99.90;;;;;;5015728;28;19920;-66
2022/07/02 11:26:45;;;;;;;;;;;16.80;99.90;;;;;;5014420;28;19979;-67
2022/07/02 11:29:13;;;;;;;;;;;16.30;99.90;;;;;;5016811;28;20289;-68
2022/07/02 11:31:43;;;;;;;;;;;15.80;99.90;;;;;;5015648;28;19914;-69
2022/07/02 11:34:09;;;;;;;;;;;15.60;99.90;;;;;;5014953;28;20012;-69
2022/07/02 11:36:40;;;;;;;;;;;15.30;99.90;;;;;;5014336;28;20337;-70
2022/07/02 11:39:13;;;;;;;;;;;15.10;99.90;;;;;;5011292;28;19992;-68
2022/07/02 11:41:39;;;;;;;;;;;15.20;99.90;;;;;;4979965;28;19918;-68
2022/07/02 11:44:13;;;;;;;;;;;15.00;99.90;;;;;;4995193;28;20338;-69
2022/07/02 11:46:38;;;;;;;;;;;14.90;99.90;;;;;;5011841;28;20351;-68
2022/07/02 11:49:12;;;;;;;;;;;15.00;99.90;;;;;;5010925;28;19924;-68
2022/07/02 11:51:38;;;;;;;;;;;15.00;99.90;;;;;;5010337;28;19922;-68
2022/07/02 11:54:04;;;;;;;;;;;15.00;99.90;;;;;;5014840;28;19917;-69
2022/07/02 11:56:31;;;;;;;;;;;15.10;99.90;;;;;;5011829;28;19920;-69
2022/07/02 11:58:56;;;;;;;;;;;15.10;99.90;;;;;;5010201;28;20000;-68
2022/07/02 12:01:23;;;;;;;;;;;15.20;99.90;;;;;;5012444;28;20012;-67
2022/07/02 12:03:50;;;;;;;;;;;15.20;99.90;;;;;;5009656;28;19913;-69
2022/07/02 12:06:15;;;;;;;;;;;15.10;99.90;;;;;;5014312;28;19939;-68
2022/07/02 12:08:42;;;;;;;;;;;15.30;99.90;;;;;;5012393;28;19922;-68
2022/07/02 12:11:11;;;;;;;;;;;15.50;99.90;;;;;;5010944;28;19917;-68
2022/07/02 12:13:37;;;;;;;;;;;15.50;99.90;;;;;;4992657;28;19994;-68
2022/07/02 12:16:02;;;;;;;;;;;15.50;99.90;;;;;;5009924;28;20327;-68
2022/07/02 12:18:29;;;;;;;;;;;15.60;99.90;;;;;;5002759;28;19922;-68
2022/07/02 12:20:55;;;;;;;;;;;15.90;99.90;;;;;;5006387;28;19928;-69
2022/07/02 12:23:20;;;;;;;;;;;15.90;99.90;;;;;;5000983;28;20000;-68
2022/07/02 12:25:48;;;;;;;;;;;16.10;99.90;;;;;;5005894;28;20014;-67
2022/07/02 12:31:01;;;;;;;;;;;16.40;99.90;;;;;;5005069;28;20004;-67
2022/07/02 12:33:36;;;;;;;;;;;16.10;99.90;;;;;;5010703;28;20004;-69
2022/07/02 12:36:05;;;;;;;;;;;16.10;99.90;;;;;;5010486;28;20438;-67
2022/07/02 12:38:42;;;;;;;;;;;16.30;99.90;;;;;;5010125;28;19920;-67
2022/07/02 12:41:08;;;;;;;;;;;16.60;99.90;;;;;;5013402;28;20422;-68
2022/07/02 12:43:34;;;;;;;;;;;16.90;99.90;;;;;;5007403;28;20121;-68
2022/07/02 12:46:04;;;;;;;;;;;17.10;99.90;;;;;;5004245;28;19918;-72
2022/07/02 12:48:29;;;;;;;;;;;17.30;99.90;;;;;;5006352;28;19960;-69
2022/07/02 12:50:59;;;;;;;;;;;17.50;99.90;;;;;;4987123;28;19952;-68
2022/07/02 12:53:26;;;;;;;;;;;17.50;99.90;;;;;;4991824;28;19917;-67
2022/07/02 12:55:58;;;;;;;;;;;17.50;99.90;;;;;;5011589;28;20374;-68
2022/07/02 12:58:24;;;;;;;;;;;17.70;99.90;;;;;;5002153;28;19921;-70
2022/07/02 13:00:50;;;;;;;;;;;17.90;99.90;;;;;;4999067;28;20573;-65
2022/07/02 13:03:19;;;;;;;;;;;18.20;99.90;;;;;;4999021;28;19917;-65
2022/07/02 13:05:46;;;;;;;;;;;18.50;99.90;;;;;;4987642;28;19968;-65
2022/07/02 13:08:11;;;;;;;;;;;18.30;99.90;;;;;;5007299;28;19917;-66
2022/07/02 13:10:38;;;;;;;;;;;18.30;99.90;;;;;;5008746;28;20362;-66
2022/07/02 13:13:03;;;;;;;;;;;17.90;99.90;;;;;;5006081;28;19913;-67
2022/07/02 13:15:29;;;;;;;;;;;18.00;99.90;;;;;;5002076;28;19925;-67
2022/07/02 13:17:55;;;;;;;;;;;18.10;99.90;;;;;;5005023;28;19918;-66
2022/07/02 13:20:20;;;;;;;;;;;18.20;99.90;;;;;;4980358;28;19917;-66
2022/07/02 13:22:46;;;;;;;;;;;18.40;99.90;;;;;;5001027;28;19936;-66
2022/07/02 13:25:12;;;;;;;;;;;18.50;99.90;;;;;;5005804;28;19921;-68
2022/07/02 13:27:38;;;;;;;;;;;18.70;99.90;;;;;;5012744;28;20167;-67
2022/07/02 13:30:05;;;;;;;;;;;18.80;99.90;;;;;;5009632;28;20385;-67
2022/07/02 13:32:30;;;;;;;;;;;18.90;99.90;;;;;;5009100;28;19928;-66
2022/07/02 13:34:56;;;;;;;;;;;19.10;99.90;;;;;;5000611;28;19914;-65
2022/07/02 13:37:22;;;;;;;;;;;19.40;99.90;;;;;;5004661;28;19956;-67
2022/07/02 13:39:48;;;;;;;;;;;19.60;99.90;;;;;;5010508;28;20297;-67
2022/07/02 13:42:14;;;;;;;;;;;19.70;99.90;;;;;;5003251;28;19914;-66
2022/07/02 13:44:39;;;;;;;;;;;19.90;99.90;;;;;;4973848;28;20103;-66
2022/07/02 13:47:05;;;;;;;;;;;20.30;99.90;;;;;;5003053;28;20327;-65
2022/07/02 13:49:31;;;;;;;;;;;20.20;99.90;;;;;;4999023;28;19980;-66
2022/07/02 13:51:56;;;;;;;;;;;20.10;99.90;;;;;;5010401;28;20260;-65
2022/07/02 13:54:22;;;;;;;;;;;20.10;99.90;;;;;;5010523;28;19968;-67
2022/07/02 13:56:48;;;;;;;;;;;19.90;99.90;;;;;;5002264;28;19929;-66
2022/07/02 13:59:13;;;;;;;;;;;20.00;99.90;;;;;;5008197;28;19924;-67
2022/07/02 14:01:39;;;;;;;;;;;19.90;99.90;;;;;;5008782;28;19913;-66
2022/07/02 14:04:05;;;;;;;;;;;19.90;99.90;;;;;;5009647;28;19928;-66
2022/07/02 14:06:34;;;;;;;;;;;20.10;99.90;;;;;;4993677;28;19914;-68
2022/07/02 14:08:59;;;;;;;;;;;20.60;99.90;;;;;;5004856;28;19918;-65
2022/07/02 14:11:25;;;;;;;;;;;21.10;99.90;;;;;;4988298;28;19996;-66
2022/07/02 14:13:51;;;;;;;;;;;21.40;99.90;;;;;;5000690;28;19922;-66
2022/07/02 14:16:17;;;;;;;;;;;21.50;99.90;;;;;;5000321;28;19997;-66
2022/07/02 14:18:42;;;;;;;;;;;21.60;99.90;;;;;;4988894;28;20000;-66
2022/07/02 14:21:08;;;;;;;;;;;21.00;99.90;;;;;;5003080;28;20016;-67
2022/07/02 14:23:33;;;;;;;;;;;20.70;99.90;;;;;;5002061;28;20054;-66